sensor_id;sensor_type;location;lat;lon;timestamp;P1;durP1;ratioP1;P2;durP2;ratioP2
79076;SDS011;68477;42.698;23.342;2024-03-22T00:01:10;38.25;;;18.40;;
79076;SDS011;68477;42.698;23.342;2024-03-22T00:03:35;32.00;;;16.20;;
79076;SDS011;68477;42.698;23.342;2024-03-22T00:06:01;38.97;;;18.35;;
79076;SDS011;68477;42.698;23.342;2024-03-22T00:08:27;40.42;;;19.80;;
79076;SDS011;68477;42.698;23.342;2024-03-22T00:10:52;33.33;;;17.70;;
79076;SDS011;68477;42.698;23.342;2024-03-22T00:13:18;30.65;;;17.40;;
79076;SDS011;68477;42.698;23.342;2024-03-22T00:15:43;33.55;;;16.90;;
79076;SDS011;68477;42.698;23.342;2024-03-22T00:18:10;32.05;;;16.17;;
79076;SDS011;68477;42.698;23.342;2024-03-22T00:20:36;34.03;;;15.93;;
79076;SDS011;68477;42.698;23.342;2024-03-22T00:23:01;33.80;;;16.52;;
79076;SDS011;68477;42.698;23.342;2024-03-22T00:25:27;33.08;;;17.80;;
79076;SDS011;68477;42.698;23.342;2024-03-22T00:27:55;30.50;;;15.88;;
79076;SDS011;68477;42.698;23.342;2024-03-22T00:30:20;39.53;;;17.50;;
79076;SDS011;68477;42.698;23.342;2024-03-22T00:32:46;33.85;;;17.27;;
79076;SDS011;68477;42.698;23.342;2024-03-22T00:35:12;33.13;;;16.50;;
79076;SDS011;68477;42.698;23.342;2024-03-22T00:37:37;32.78;;;17.48;;
79076;SDS011;68477;42.698;23.342;2024-03-22T00:40:03;37.65;;;18.63;;
79076;SDS011;68477;42.698;23.342;2024-03-22T00:42:29;33.15;;;17.00;;
79076;SDS011;68477;42.698;23.342;2024-03-22T00:44:55;34.65;;;17.25;;
79076;SDS011;68477;42.698;23.342;2024-03-22T00:47:22;37.25;;;17.77;;
79076;SDS011;68477;42.698;23.342;2024-03-22T00:49:47;33.50;;;17.30;;
79076;SDS011;68477;42.698;23.342;2024-03-22T00:52:13;41.63;;;18.60;;
79076;SDS011;68477;42.698;23.342;2024-03-22T00:54:38;35.63;;;17.00;;
79076;SDS011;68477;42.698;23.342;2024-03-22T00:57:05;31.63;;;17.55;;
79076;SDS011;68477;42.698;23.342;2024-03-22T00:59:32;31.50;;;16.52;;
79076;SDS011;68477;42.698;23.342;2024-03-22T01:01:57;32.28;;;16.20;;
79076;SDS011;68477;42.698;23.342;2024-03-22T01:04:23;31.08;;;16.38;;
79076;SDS011;68477;42.698;23.342;2024-03-22T01:06:49;29.63;;;15.52;;
79076;SDS011;68477;42.698;23.342;2024-03-22T01:09:14;37.53;;;15.95;;
79076;SDS011;68477;42.698;23.342;2024-03-22T01:11:40;34.72;;;16.02;;
79076;SDS011;68477;42.698;23.342;2024-03-22T01:14:05;29.98;;;13.30;;
79076;SDS011;68477;42.698;23.342;2024-03-22T01:16:31;32.70;;;12.38;;
79076;SDS011;68477;42.698;23.342;2024-03-22T01:18:56;28.17;;;12.20;;
79076;SDS011;68477;42.698;23.342;2024-03-22T01:21:22;24.75;;;12.32;;
79076;SDS011;68477;42.698;23.342;2024-03-22T01:23:51;23.60;;;12.82;;
79076;SDS011;68477;42.698;23.342;2024-03-22T01:26:17;31.10;;;13.57;;
79076;SDS011;68477;42.698;23.342;2024-03-22T01:28:43;30.10;;;14.48;;
79076;SDS011;68477;42.698;23.342;2024-03-22T01:31:08;31.35;;;14.73;;
79076;SDS011;68477;42.698;23.342;2024-03-22T01:33:34;26.50;;;12.73;;
79076;SDS011;68477;42.698;23.342;2024-03-22T01:35:59;27.67;;;13.10;;
79076;SDS011;68477;42.698;23.342;2024-03-22T01:38:25;25.05;;;12.73;;
79076;SDS011;68477;42.698;23.342;2024-03-22T01:40:51;28.15;;;13.25;;
79076;SDS011;68477;42.698;23.342;2024-03-22T01:43:16;28.83;;;13.45;;
79076;SDS011;68477;42.698;23.342;2024-03-22T01:45:42;25.98;;;13.07;;
79076;SDS011;68477;42.698;23.342;2024-03-22T01:48:09;24.98;;;14.15;;
79076;SDS011;68477;42.698;23.342;2024-03-22T01:50:34;33.13;;;14.63;;
79076;SDS011;68477;42.698;23.342;2024-03-22T01:53:00;29.45;;;14.95;;
79076;SDS011;68477;42.698;23.342;2024-03-22T01:55:26;27.02;;;14.05;;
79076;SDS011;68477;42.698;23.342;2024-03-22T01:57:54;26.35;;;13.70;;
79076;SDS011;68477;42.698;23.342;2024-03-22T02:00:20;33.10;;;14.38;;
79076;SDS011;68477;42.698;23.342;2024-03-22T02:02:46;34.63;;;15.80;;
79076;SDS011;68477;42.698;23.342;2024-03-22T02:05:16;32.38;;;15.77;;
79076;SDS011;68477;42.698;23.342;2024-03-22T02:07:46;31.10;;;15.77;;
79076;SDS011;68477;42.698;23.342;2024-03-22T02:10:13;32.22;;;15.90;;
79076;SDS011;68477;42.698;23.342;2024-03-22T02:12:39;36.92;;;16.27;;
79076;SDS011;68477;42.698;23.342;2024-03-22T02:15:05;30.33;;;15.80;;
79076;SDS011;68477;42.698;23.342;2024-03-22T02:17:35;32.47;;;15.20;;
79076;SDS011;68477;42.698;23.342;2024-03-22T02:20:01;29.00;;;14.18;;
79076;SDS011;68477;42.698;23.342;2024-03-22T02:22:29;35.80;;;15.60;;
79076;SDS011;68477;42.698;23.342;2024-03-22T02:24:54;30.55;;;14.73;;
79076;SDS011;68477;42.698;23.342;2024-03-22T02:27:20;32.30;;;14.85;;
79076;SDS011;68477;42.698;23.342;2024-03-22T02:29:46;35.08;;;16.52;;
79076;SDS011;68477;42.698;23.342;2024-03-22T02:32:11;34.20;;;16.05;;
79076;SDS011;68477;42.698;23.342;2024-03-22T02:34:37;33.85;;;16.30;;
79076;SDS011;68477;42.698;23.342;2024-03-22T02:37:03;36.00;;;16.38;;
79076;SDS011;68477;42.698;23.342;2024-03-22T02:39:28;28.30;;;14.65;;
79076;SDS011;68477;42.698;23.342;2024-03-22T02:41:54;29.67;;;14.73;;
79076;SDS011;68477;42.698;23.342;2024-03-22T02:44:20;34.30;;;16.10;;
79076;SDS011;68477;42.698;23.342;2024-03-22T02:46:46;26.58;;;14.35;;
79076;SDS011;68477;42.698;23.342;2024-03-22T02:49:12;30.85;;;13.73;;
79076;SDS011;68477;42.698;23.342;2024-03-22T02:51:37;30.73;;;14.57;;
79076;SDS011;68477;42.698;23.342;2024-03-22T02:54:03;35.28;;;13.23;;
79076;SDS011;68477;42.698;23.342;2024-03-22T02:56:29;31.45;;;14.73;;
79076;SDS011;68477;42.698;23.342;2024-03-22T02:58:55;32.10;;;14.60;;
79076;SDS011;68477;42.698;23.342;2024-03-22T03:01:20;33.53;;;14.98;;
79076;SDS011;68477;42.698;23.342;2024-03-22T03:03:46;27.65;;;13.65;;
79076;SDS011;68477;42.698;23.342;2024-03-22T03:06:11;26.48;;;14.85;;
79076;SDS011;68477;42.698;23.342;2024-03-22T03:08:38;31.90;;;14.48;;
79076;SDS011;68477;42.698;23.342;2024-03-22T03:11:04;33.20;;;15.68;;
79076;SDS011;68477;42.698;23.342;2024-03-22T03:13:30;33.03;;;15.50;;
79076;SDS011;68477;42.698;23.342;2024-03-22T03:15:56;32.90;;;13.23;;
79076;SDS011;68477;42.698;23.342;2024-03-22T03:18:22;24.92;;;13.25;;
79076;SDS011;68477;42.698;23.342;2024-03-22T03:20:47;30.70;;;12.32;;
79076;SDS011;68477;42.698;23.342;2024-03-22T03:23:13;31.83;;;12.65;;
79076;SDS011;68477;42.698;23.342;2024-03-22T03:25:38;17.73;;;10.15;;
79076;SDS011;68477;42.698;23.342;2024-03-22T03:28:04;20.77;;;9.27;;
79076;SDS011;68477;42.698;23.342;2024-03-22T03:30:29;15.95;;;9.13;;
79076;SDS011;68477;42.698;23.342;2024-03-22T03:32:55;18.90;;;9.55;;
79076;SDS011;68477;42.698;23.342;2024-03-22T03:35:20;21.58;;;9.07;;
79076;SDS011;68477;42.698;23.342;2024-03-22T03:37:46;15.45;;;8.05;;
79076;SDS011;68477;42.698;23.342;2024-03-22T03:40:11;17.30;;;9.75;;
79076;SDS011;68477;42.698;23.342;2024-03-22T03:42:37;18.70;;;8.48;;
79076;SDS011;68477;42.698;23.342;2024-03-22T03:45:02;16.80;;;8.77;;
79076;SDS011;68477;42.698;23.342;2024-03-22T03:47:28;17.25;;;9.43;;
79076;SDS011;68477;42.698;23.342;2024-03-22T03:49:53;17.08;;;9.15;;
79076;SDS011;68477;42.698;23.342;2024-03-22T03:52:19;18.63;;;8.55;;
79076;SDS011;68477;42.698;23.342;2024-03-22T03:54:44;21.63;;;9.63;;
79076;SDS011;68477;42.698;23.342;2024-03-22T03:57:10;17.67;;;9.43;;
79076;SDS011;68477;42.698;23.342;2024-03-22T03:59:35;17.95;;;9.02;;
79076;SDS011;68477;42.698;23.342;2024-03-22T04:02:01;15.68;;;8.55;;
79076;SDS011;68477;42.698;23.342;2024-03-22T04:04:26;18.17;;;8.95;;
79076;SDS011;68477;42.698;23.342;2024-03-22T04:06:52;17.00;;;8.63;;
79076;SDS011;68477;42.698;23.342;2024-03-22T04:09:17;19.50;;;9.32;;
79076;SDS011;68477;42.698;23.342;2024-03-22T04:11:43;18.60;;;9.02;;
79076;SDS011;68477;42.698;23.342;2024-03-22T04:14:09;17.63;;;9.00;;
79076;SDS011;68477;42.698;23.342;2024-03-22T04:16:36;20.23;;;8.75;;
79076;SDS011;68477;42.698;23.342;2024-03-22T04:19:01;17.48;;;8.30;;
79076;SDS011;68477;42.698;23.342;2024-03-22T04:21:26;12.68;;;8.15;;
79076;SDS011;68477;42.698;23.342;2024-03-22T04:23:52;21.98;;;9.38;;
79076;SDS011;68477;42.698;23.342;2024-03-22T04:26:17;19.67;;;8.38;;
79076;SDS011;68477;42.698;23.342;2024-03-22T04:28:43;21.25;;;9.50;;
79076;SDS011;68477;42.698;23.342;2024-03-22T04:31:09;18.75;;;9.00;;
79076;SDS011;68477;42.698;23.342;2024-03-22T04:33:35;17.98;;;8.68;;
79076;SDS011;68477;42.698;23.342;2024-03-22T04:36:01;20.20;;;9.10;;
79076;SDS011;68477;42.698;23.342;2024-03-22T04:38:28;17.35;;;9.05;;
79076;SDS011;68477;42.698;23.342;2024-03-22T04:40:54;19.63;;;9.30;;
79076;SDS011;68477;42.698;23.342;2024-03-22T04:43:20;18.23;;;8.85;;
79076;SDS011;68477;42.698;23.342;2024-03-22T04:45:46;15.43;;;8.15;;
79076;SDS011;68477;42.698;23.342;2024-03-22T04:48:14;17.40;;;8.63;;
79076;SDS011;68477;42.698;23.342;2024-03-22T04:50:42;13.93;;;8.15;;
79076;SDS011;68477;42.698;23.342;2024-03-22T04:53:08;18.27;;;9.07;;
79076;SDS011;68477;42.698;23.342;2024-03-22T04:55:33;25.80;;;9.48;;
79076;SDS011;68477;42.698;23.342;2024-03-22T04:57:59;19.40;;;8.98;;
79076;SDS011;68477;42.698;23.342;2024-03-22T05:00:25;15.55;;;8.35;;
79076;SDS011;68477;42.698;23.342;2024-03-22T05:02:51;17.23;;;8.63;;
79076;SDS011;68477;42.698;23.342;2024-03-22T05:05:17;25.52;;;9.75;;
79076;SDS011;68477;42.698;23.342;2024-03-22T05:07:43;17.45;;;9.27;;
79076;SDS011;68477;42.698;23.342;2024-03-22T05:10:08;24.13;;;10.70;;
79076;SDS011;68477;42.698;23.342;2024-03-22T05:12:34;27.45;;;13.32;;
79076;SDS011;68477;42.698;23.342;2024-03-22T05:15:00;35.05;;;14.55;;
79076;SDS011;68477;42.698;23.342;2024-03-22T05:17:27;29.40;;;12.93;;
79076;SDS011;68477;42.698;23.342;2024-03-22T05:19:54;28.33;;;12.20;;
79076;SDS011;68477;42.698;23.342;2024-03-22T05:22:19;28.45;;;12.55;;
79076;SDS011;68477;42.698;23.342;2024-03-22T05:24:45;32.25;;;12.77;;
79076;SDS011;68477;42.698;23.342;2024-03-22T05:27:11;34.30;;;14.95;;
79076;SDS011;68477;42.698;23.342;2024-03-22T05:29:37;30.80;;;13.40;;
79076;SDS011;68477;42.698;23.342;2024-03-22T05:32:03;29.00;;;12.98;;
79076;SDS011;68477;42.698;23.342;2024-03-22T05:34:29;29.00;;;14.05;;
79076;SDS011;68477;42.698;23.342;2024-03-22T05:36:55;30.77;;;12.57;;
79076;SDS011;68477;42.698;23.342;2024-03-22T05:39:20;19.30;;;10.05;;
79076;SDS011;68477;42.698;23.342;2024-03-22T05:41:46;19.40;;;9.45;;
79076;SDS011;68477;42.698;23.342;2024-03-22T05:44:11;20.73;;;9.23;;
79076;SDS011;68477;42.698;23.342;2024-03-22T05:46:37;16.90;;;9.75;;
79076;SDS011;68477;42.698;23.342;2024-03-22T05:49:02;25.25;;;11.75;;
79076;SDS011;68477;42.698;23.342;2024-03-22T05:51:28;26.15;;;10.98;;
79076;SDS011;68477;42.698;23.342;2024-03-22T05:53:56;27.30;;;11.88;;
79076;SDS011;68477;42.698;23.342;2024-03-22T05:56:22;25.85;;;12.15;;
79076;SDS011;68477;42.698;23.342;2024-03-22T05:58:47;26.50;;;12.70;;
79076;SDS011;68477;42.698;23.342;2024-03-22T06:01:13;35.10;;;12.90;;
79076;SDS011;68477;42.698;23.342;2024-03-22T06:03:38;22.75;;;11.73;;
79076;SDS011;68477;42.698;23.342;2024-03-22T06:06:04;32.90;;;12.65;;
79076;SDS011;68477;42.698;23.342;2024-03-22T06:08:30;38.95;;;16.65;;
79076;SDS011;68477;42.698;23.342;2024-03-22T06:10:59;23.80;;;13.15;;
79076;SDS011;68477;42.698;23.342;2024-03-22T06:13:25;32.17;;;13.63;;
79076;SDS011;68477;42.698;23.342;2024-03-22T06:15:50;28.13;;;13.45;;
79076;SDS011;68477;42.698;23.342;2024-03-22T06:18:16;29.52;;;12.00;;
79076;SDS011;68477;42.698;23.342;2024-03-22T06:20:42;29.83;;;12.65;;
79076;SDS011;68477;42.698;23.342;2024-03-22T06:23:08;28.63;;;13.05;;
79076;SDS011;68477;42.698;23.342;2024-03-22T06:25:34;39.67;;;15.13;;
79076;SDS011;68477;42.698;23.342;2024-03-22T06:28:00;29.42;;;15.05;;
79076;SDS011;68477;42.698;23.342;2024-03-22T06:30:25;41.70;;;15.70;;
79076;SDS011;68477;42.698;23.342;2024-03-22T06:32:52;31.15;;;15.15;;
79076;SDS011;68477;42.698;23.342;2024-03-22T06:35:18;31.70;;;13.80;;
79076;SDS011;68477;42.698;23.342;2024-03-22T06:37:43;31.98;;;13.25;;
79076;SDS011;68477;42.698;23.342;2024-03-22T06:40:09;29.52;;;12.70;;
79076;SDS011;68477;42.698;23.342;2024-03-22T06:42:35;24.95;;;11.73;;
79076;SDS011;68477;42.698;23.342;2024-03-22T06:45:01;27.30;;;12.23;;
79076;SDS011;68477;42.698;23.342;2024-03-22T06:47:27;27.95;;;10.95;;
79076;SDS011;68477;42.698;23.342;2024-03-22T06:49:53;30.63;;;11.77;;
79076;SDS011;68477;42.698;23.342;2024-03-22T06:52:19;24.17;;;11.95;;
79076;SDS011;68477;42.698;23.342;2024-03-22T06:54:45;29.40;;;12.77;;
79076;SDS011;68477;42.698;23.342;2024-03-22T06:57:11;22.83;;;11.20;;
79076;SDS011;68477;42.698;23.342;2024-03-22T06:59:36;23.98;;;10.32;;
79076;SDS011;68477;42.698;23.342;2024-03-22T07:02:02;19.55;;;10.73;;
79076;SDS011;68477;42.698;23.342;2024-03-22T07:04:27;28.17;;;13.40;;
79076;SDS011;68477;42.698;23.342;2024-03-22T07:06:53;24.45;;;10.02;;
79076;SDS011;68477;42.698;23.342;2024-03-22T07:09:18;17.17;;;9.15;;
79076;SDS011;68477;42.698;23.342;2024-03-22T07:11:44;19.77;;;10.15;;
79076;SDS011;68477;42.698;23.342;2024-03-22T07:14:10;25.95;;;9.77;;
79076;SDS011;68477;42.698;23.342;2024-03-22T07:16:35;25.63;;;10.25;;
79076;SDS011;68477;42.698;23.342;2024-03-22T07:19:02;19.80;;;11.20;;
79076;SDS011;68477;42.698;23.342;2024-03-22T07:21:28;19.85;;;10.02;;
79076;SDS011;68477;42.698;23.342;2024-03-22T07:23:54;16.98;;;9.15;;
79076;SDS011;68477;42.698;23.342;2024-03-22T07:26:19;21.83;;;10.02;;
79076;SDS011;68477;42.698;23.342;2024-03-22T07:28:45;19.27;;;9.02;;
79076;SDS011;68477;42.698;23.342;2024-03-22T07:31:10;17.85;;;9.02;;
79076;SDS011;68477;42.698;23.342;2024-03-22T07:33:36;15.70;;;8.93;;
79076;SDS011;68477;42.698;23.342;2024-03-22T07:36:05;15.80;;;8.13;;
79076;SDS011;68477;42.698;23.342;2024-03-22T07:38:32;13.25;;;7.50;;
79076;SDS011;68477;42.698;23.342;2024-03-22T07:40:58;19.75;;;8.30;;
79076;SDS011;68477;42.698;23.342;2024-03-22T07:43:23;28.60;;;8.63;;
79076;SDS011;68477;42.698;23.342;2024-03-22T07:45:49;22.35;;;7.13;;
79076;SDS011;68477;42.698;23.342;2024-03-22T07:48:14;21.60;;;8.27;;
79076;SDS011;68477;42.698;23.342;2024-03-22T07:50:41;18.25;;;7.70;;
79076;SDS011;68477;42.698;23.342;2024-03-22T07:53:06;12.70;;;5.40;;
79076;SDS011;68477;42.698;23.342;2024-03-22T07:55:32;8.35;;;4.57;;
79076;SDS011;68477;42.698;23.342;2024-03-22T07:57:58;11.63;;;5.80;;
79076;SDS011;68477;42.698;23.342;2024-03-22T08:00:23;12.70;;;6.10;;
79076;SDS011;68477;42.698;23.342;2024-03-22T08:02:51;9.35;;;5.47;;
79076;SDS011;68477;42.698;23.342;2024-03-22T08:05:17;9.38;;;4.57;;
79076;SDS011;68477;42.698;23.342;2024-03-22T08:07:42;11.82;;;5.10;;
79076;SDS011;68477;42.698;23.342;2024-03-22T08:10:09;7.20;;;4.45;;
79076;SDS011;68477;42.698;23.342;2024-03-22T08:12:35;6.85;;;4.40;;
79076;SDS011;68477;42.698;23.342;2024-03-22T08:15:01;12.38;;;5.45;;
79076;SDS011;68477;42.698;23.342;2024-03-22T08:17:27;7.25;;;3.75;;
79076;SDS011;68477;42.698;23.342;2024-03-22T08:19:53;6.47;;;3.80;;
79076;SDS011;68477;42.698;23.342;2024-03-22T08:22:19;11.05;;;4.47;;
79076;SDS011;68477;42.698;23.342;2024-03-22T08:24:44;8.48;;;3.65;;
79076;SDS011;68477;42.698;23.342;2024-03-22T08:27:09;6.15;;;3.72;;
79076;SDS011;68477;42.698;23.342;2024-03-22T08:29:35;6.68;;;4.03;;
79076;SDS011;68477;42.698;23.342;2024-03-22T08:32:00;9.18;;;3.15;;
79076;SDS011;68477;42.698;23.342;2024-03-22T08:34:29;6.40;;;4.07;;
79076;SDS011;68477;42.698;23.342;2024-03-22T08:36:55;9.13;;;3.90;;
79076;SDS011;68477;42.698;23.342;2024-03-22T08:39:21;5.57;;;3.15;;
79076;SDS011;68477;42.698;23.342;2024-03-22T08:41:46;6.38;;;3.85;;
79076;SDS011;68477;42.698;23.342;2024-03-22T08:44:13;7.28;;;3.63;;
79076;SDS011;68477;42.698;23.342;2024-03-22T08:46:38;5.95;;;3.40;;
79076;SDS011;68477;42.698;23.342;2024-03-22T08:49:04;7.55;;;5.45;;
79076;SDS011;68477;42.698;23.342;2024-03-22T08:51:30;8.40;;;3.72;;
79076;SDS011;68477;42.698;23.342;2024-03-22T08:53:55;4.85;;;3.03;;
79076;SDS011;68477;42.698;23.342;2024-03-22T08:56:21;6.60;;;3.22;;
79076;SDS011;68477;42.698;23.342;2024-03-22T08:58:46;5.78;;;3.50;;
79076;SDS011;68477;42.698;23.342;2024-03-22T09:01:12;6.20;;;3.35;;
79076;SDS011;68477;42.698;23.342;2024-03-22T09:03:37;7.18;;;3.90;;
79076;SDS011;68477;42.698;23.342;2024-03-22T09:06:04;5.97;;;3.15;;
79076;SDS011;68477;42.698;23.342;2024-03-22T09:08:29;10.10;;;4.63;;
79076;SDS011;68477;42.698;23.342;2024-03-22T09:10:56;5.10;;;3.13;;
79076;SDS011;68477;42.698;23.342;2024-03-22T09:13:21;6.18;;;3.63;;
79076;SDS011;68477;42.698;23.342;2024-03-22T09:15:47;7.20;;;3.30;;
79076;SDS011;68477;42.698;23.342;2024-03-22T09:18:12;10.93;;;4.68;;
79076;SDS011;68477;42.698;23.342;2024-03-22T09:20:38;7.47;;;4.53;;
79076;SDS011;68477;42.698;23.342;2024-03-22T09:23:03;6.30;;;3.03;;
79076;SDS011;68477;42.698;23.342;2024-03-22T09:25:29;4.88;;;3.35;;
79076;SDS011;68477;42.698;23.342;2024-03-22T09:27:54;5.75;;;3.65;;
79076;SDS011;68477;42.698;23.342;2024-03-22T09:30:20;8.80;;;3.50;;
79076;SDS011;68477;42.698;23.342;2024-03-22T09:32:46;7.72;;;3.42;;
79076;SDS011;68477;42.698;23.342;2024-03-22T09:35:12;5.55;;;3.20;;
79076;SDS011;68477;42.698;23.342;2024-03-22T09:37:40;5.88;;;3.97;;
79076;SDS011;68477;42.698;23.342;2024-03-22T09:40:06;11.13;;;3.40;;
79076;SDS011;68477;42.698;23.342;2024-03-22T09:42:33;5.25;;;2.75;;
79076;SDS011;68477;42.698;23.342;2024-03-22T09:45:04;6.22;;;3.28;;
79076;SDS011;68477;42.698;23.342;2024-03-22T09:47:33;7.07;;;4.03;;
79076;SDS011;68477;42.698;23.342;2024-03-22T09:49:59;6.93;;;4.35;;
79076;SDS011;68477;42.698;23.342;2024-03-22T09:52:26;6.50;;;3.42;;
79076;SDS011;68477;42.698;23.342;2024-03-22T09:54:53;7.13;;;3.10;;
79076;SDS011;68477;42.698;23.342;2024-03-22T09:57:18;5.90;;;2.95;;
79076;SDS011;68477;42.698;23.342;2024-03-22T10:02:12;4.78;;;3.00;;
79076;SDS011;68477;42.698;23.342;2024-03-22T10:04:40;9.48;;;3.53;;
79076;SDS011;68477;42.698;23.342;2024-03-22T10:07:06;6.70;;;3.70;;
79076;SDS011;68477;42.698;23.342;2024-03-22T10:09:36;7.57;;;3.15;;
79076;SDS011;68477;42.698;23.342;2024-03-22T10:12:02;5.32;;;3.20;;
79076;SDS011;68477;42.698;23.342;2024-03-22T10:14:29;6.05;;;2.92;;
79076;SDS011;68477;42.698;23.342;2024-03-22T10:16:56;5.25;;;3.35;;
79076;SDS011;68477;42.698;23.342;2024-03-22T10:19:22;6.10;;;3.50;;
79076;SDS011;68477;42.698;23.342;2024-03-22T10:22:01;4.57;;;2.35;;
79076;SDS011;68477;42.698;23.342;2024-03-22T10:24:28;6.32;;;3.20;;
79076;SDS011;68477;42.698;23.342;2024-03-22T10:26:54;4.95;;;2.88;;
79076;SDS011;68477;42.698;23.342;2024-03-22T10:29:21;7.47;;;3.00;;
79076;SDS011;68477;42.698;23.342;2024-03-22T10:31:50;6.00;;;3.30;;
79076;SDS011;68477;42.698;23.342;2024-03-22T10:34:17;5.28;;;3.15;;
79076;SDS011;68477;42.698;23.342;2024-03-22T10:36:43;3.95;;;2.83;;
79076;SDS011;68477;42.698;23.342;2024-03-22T10:39:09;6.03;;;2.67;;
79076;SDS011;68477;42.698;23.342;2024-03-22T10:41:38;6.97;;;2.67;;
79076;SDS011;68477;42.698;23.342;2024-03-22T10:44:03;4.18;;;2.50;;
79076;SDS011;68477;42.698;23.342;2024-03-22T10:46:30;5.20;;;3.30;;
79076;SDS011;68477;42.698;23.342;2024-03-22T10:48:58;6.43;;;3.38;;
79076;SDS011;68477;42.698;23.342;2024-03-22T10:51:25;5.28;;;2.80;;
79076;SDS011;68477;42.698;23.342;2024-03-22T10:53:52;5.75;;;3.30;;
79076;SDS011;68477;42.698;23.342;2024-03-22T10:56:19;5.95;;;3.35;;
79076;SDS011;68477;42.698;23.342;2024-03-22T10:58:47;12.25;;;3.60;;
79076;SDS011;68477;42.698;23.342;2024-03-22T11:01:23;7.03;;;3.30;;
79076;SDS011;68477;42.698;23.342;2024-03-22T11:03:50;7.07;;;3.88;;
79076;SDS011;68477;42.698;23.342;2024-03-22T11:06:38;5.72;;;3.25;;
79076;SDS011;68477;42.698;23.342;2024-03-22T11:09:03;5.22;;;3.50;;
79076;SDS011;68477;42.698;23.342;2024-03-22T11:11:30;6.72;;;3.22;;
79076;SDS011;68477;42.698;23.342;2024-03-22T11:14:02;6.03;;;2.90;;
79076;SDS011;68477;42.698;23.342;2024-03-22T11:16:28;3.60;;;2.60;;
79076;SDS011;68477;42.698;23.342;2024-03-22T11:18:55;8.88;;;3.30;;
79076;SDS011;68477;42.698;23.342;2024-03-22T11:21:20;6.55;;;2.78;;
79076;SDS011;68477;42.698;23.342;2024-03-22T11:23:46;5.05;;;3.20;;
79076;SDS011;68477;42.698;23.342;2024-03-22T11:26:12;7.72;;;3.60;;
79076;SDS011;68477;42.698;23.342;2024-03-22T11:28:38;5.43;;;3.38;;
79076;SDS011;68477;42.698;23.342;2024-03-22T11:31:07;5.15;;;3.03;;
79076;SDS011;68477;42.698;23.342;2024-03-22T11:33:33;5.85;;;3.58;;
79076;SDS011;68477;42.698;23.342;2024-03-22T11:35:59;6.07;;;3.03;;
79076;SDS011;68477;42.698;23.342;2024-03-22T11:38:27;4.22;;;2.78;;
79076;SDS011;68477;42.698;23.342;2024-03-22T11:40:52;5.70;;;3.75;;
79076;SDS011;68477;42.698;23.342;2024-03-22T11:43:20;6.13;;;3.10;;
79076;SDS011;68477;42.698;23.342;2024-03-22T11:45:46;5.47;;;2.80;;
79076;SDS011;68477;42.698;23.342;2024-03-22T11:48:12;6.05;;;3.08;;
79076;SDS011;68477;42.698;23.342;2024-03-22T11:50:38;4.95;;;2.67;;
79076;SDS011;68477;42.698;23.342;2024-03-22T11:53:06;4.32;;;2.88;;
79076;SDS011;68477;42.698;23.342;2024-03-22T11:57:58;4.78;;;3.13;;
79076;SDS011;68477;42.698;23.342;2024-03-22T12:00:23;7.13;;;3.13;;
79076;SDS011;68477;42.698;23.342;2024-03-22T12:02:50;8.32;;;3.47;;
79076;SDS011;68477;42.698;23.342;2024-03-22T12:05:20;5.22;;;3.03;;
79076;SDS011;68477;42.698;23.342;2024-03-22T12:07:46;5.15;;;2.83;;
79076;SDS011;68477;42.698;23.342;2024-03-22T12:10:11;6.88;;;3.38;;
79076;SDS011;68477;42.698;23.342;2024-03-22T12:12:37;5.43;;;3.00;;
79076;SDS011;68477;42.698;23.342;2024-03-22T12:15:04;5.00;;;2.92;;
79076;SDS011;68477;42.698;23.342;2024-03-22T12:17:30;7.13;;;3.10;;
79076;SDS011;68477;42.698;23.342;2024-03-22T12:19:55;6.10;;;3.40;;
79076;SDS011;68477;42.698;23.342;2024-03-22T12:22:24;6.43;;;2.95;;
79076;SDS011;68477;42.698;23.342;2024-03-22T12:24:50;6.95;;;4.30;;
79076;SDS011;68477;42.698;23.342;2024-03-22T12:27:16;5.20;;;2.90;;
79076;SDS011;68477;42.698;23.342;2024-03-22T12:29:42;3.78;;;2.67;;
79076;SDS011;68477;42.698;23.342;2024-03-22T12:32:08;8.00;;;3.70;;
79076;SDS011;68477;42.698;23.342;2024-03-22T12:34:33;4.75;;;3.25;;
79076;SDS011;68477;42.698;23.342;2024-03-22T12:36:59;5.97;;;3.20;;
79076;SDS011;68477;42.698;23.342;2024-03-22T12:39:25;5.78;;;3.53;;
79076;SDS011;68477;42.698;23.342;2024-03-22T12:41:50;5.78;;;3.22;;
79076;SDS011;68477;42.698;23.342;2024-03-22T12:44:16;5.63;;;3.25;;
79076;SDS011;68477;42.698;23.342;2024-03-22T12:46:42;4.38;;;2.53;;
79076;SDS011;68477;42.698;23.342;2024-03-22T12:49:09;6.20;;;3.00;;
79076;SDS011;68477;42.698;23.342;2024-03-22T12:51:35;4.10;;;2.70;;
79076;SDS011;68477;42.698;23.342;2024-03-22T12:54:01;4.57;;;2.70;;
79076;SDS011;68477;42.698;23.342;2024-03-22T12:56:27;5.07;;;3.22;;
79076;SDS011;68477;42.698;23.342;2024-03-22T12:58:52;5.45;;;3.00;;
79076;SDS011;68477;42.698;23.342;2024-03-22T13:01:18;5.68;;;3.13;;
79076;SDS011;68477;42.698;23.342;2024-03-22T13:03:43;6.30;;;3.20;;
79076;SDS011;68477;42.698;23.342;2024-03-22T13:06:09;7.50;;;3.58;;
79076;SDS011;68477;42.698;23.342;2024-03-22T13:08:35;5.95;;;3.47;;
79076;SDS011;68477;42.698;23.342;2024-03-22T13:11:00;6.63;;;3.08;;
79076;SDS011;68477;42.698;23.342;2024-03-22T13:13:26;5.38;;;3.20;;
79076;SDS011;68477;42.698;23.342;2024-03-22T13:15:52;7.38;;;2.80;;
79076;SDS011;68477;42.698;23.342;2024-03-22T13:18:17;8.25;;;3.08;;
79076;SDS011;68477;42.698;23.342;2024-03-22T13:20:43;5.93;;;2.95;;
79076;SDS011;68477;42.698;23.342;2024-03-22T13:23:12;4.97;;;3.10;;
79076;SDS011;68477;42.698;23.342;2024-03-22T13:25:38;5.43;;;3.00;;
79076;SDS011;68477;42.698;23.342;2024-03-22T13:28:04;5.28;;;3.75;;
79076;SDS011;68477;42.698;23.342;2024-03-22T13:30:32;6.55;;;3.17;;
79076;SDS011;68477;42.698;23.342;2024-03-22T13:32:58;5.55;;;2.97;;
79076;SDS011;68477;42.698;23.342;2024-03-22T13:35:24;13.95;;;4.18;;
79076;SDS011;68477;42.698;23.342;2024-03-22T13:37:50;6.20;;;3.05;;
79076;SDS011;68477;42.698;23.342;2024-03-22T13:40:15;5.43;;;3.45;;
79076;SDS011;68477;42.698;23.342;2024-03-22T13:42:41;5.53;;;3.60;;
79076;SDS011;68477;42.698;23.342;2024-03-22T13:45:07;15.15;;;4.13;;
79076;SDS011;68477;42.698;23.342;2024-03-22T13:47:35;5.35;;;3.05;;
79076;SDS011;68477;42.698;23.342;2024-03-22T13:50:03;6.07;;;3.50;;
79076;SDS011;68477;42.698;23.342;2024-03-22T13:52:30;4.63;;;3.50;;
79076;SDS011;68477;42.698;23.342;2024-03-22T13:54:55;6.85;;;3.30;;
79076;SDS011;68477;42.698;23.342;2024-03-22T13:57:21;5.32;;;3.28;;
79076;SDS011;68477;42.698;23.342;2024-03-22T13:59:46;5.53;;;3.20;;
79076;SDS011;68477;42.698;23.342;2024-03-22T14:02:12;8.55;;;3.88;;
79076;SDS011;68477;42.698;23.342;2024-03-22T14:04:38;4.15;;;2.92;;
79076;SDS011;68477;42.698;23.342;2024-03-22T14:07:03;4.85;;;3.13;;
79076;SDS011;68477;42.698;23.342;2024-03-22T14:09:32;4.97;;;3.30;;
79076;SDS011;68477;42.698;23.342;2024-03-22T14:11:58;6.32;;;2.95;;
79076;SDS011;68477;42.698;23.342;2024-03-22T14:14:25;5.65;;;3.55;;
79076;SDS011;68477;42.698;23.342;2024-03-22T14:16:51;5.18;;;3.15;;
79076;SDS011;68477;42.698;23.342;2024-03-22T14:19:17;6.43;;;3.13;;